sensor_id;sensor_type;location;lat;lon;timestamp;P1;durP1;ratioP1;P2;durP2;ratioP2
36593;SDS011;22603;47.900;8.146;2022-12-18T00:02:00;2.37;;;1.83;;
36593;SDS011;22603;47.900;8.146;2022-12-18T00:04:48;4.23;;;1.97;;
36593;SDS011;22603;47.900;8.146;2022-12-18T00:07:37;4.20;;;2.07;;
36593;SDS011;22603;47.900;8.146;2022-12-18T00:10:24;6.87;;;1.53;;
36593;SDS011;22603;47.900;8.146;2022-12-18T00:13:13;1.33;;;1.20;;
36593;SDS011;22603;47.900;8.146;2022-12-18T00:16:01;2.07;;;1.47;;
36593;SDS011;22603;47.900;8.146;2022-12-18T00:18:50;1.93;;;1.10;;
36593;SDS011;22603;47.900;8.146;2022-12-18T00:21:38;3.23;;;2.60;;
36593;SDS011;22603;47.900;8.146;2022-12-18T00:24:28;4.43;;;0.93;;
36593;SDS011;22603;47.900;8.146;2022-12-18T00:27:15;14.20;;;2.57;;
36593;SDS011;22603;47.900;8.146;2022-12-18T00:30:05;1.97;;;1.17;;
36593;SDS011;22603;47.900;8.146;2022-12-18T00:32:53;5.53;;;1.77;;
36593;SDS011;22603;47.900;8.146;2022-12-18T00:35:41;1.83;;;1.10;;
36593;SDS011;22603;47.900;8.146;2022-12-18T00:38:28;3.63;;;2.07;;
36593;SDS011;22603;47.900;8.146;2022-12-18T00:41:15;2.93;;;1.40;;
36593;SDS011;22603;47.900;8.146;2022-12-18T00:44:24;2.17;;;1.37;;
36593;SDS011;22603;47.900;8.146;2022-12-18T00:47:12;4.07;;;1.93;;
36593;SDS011;22603;47.900;8.146;2022-12-18T00:49:59;2.27;;;1.63;;
36593;SDS011;22603;47.900;8.146;2022-12-18T00:52:46;2.97;;;1.37;;
36593;SDS011;22603;47.900;8.146;2022-12-18T00:55:34;6.43;;;2.50;;
36593;SDS011;22603;47.900;8.146;2022-12-18T00:58:21;3.70;;;1.93;;
36593;SDS011;22603;47.900;8.146;2022-12-18T01:01:08;2.23;;;1.60;;
36593;SDS011;22603;47.900;8.146;2022-12-18T01:04:00;4.00;;;1.97;;
36593;SDS011;22603;47.900;8.146;2022-12-18T01:06:48;9.60;;;3.37;;
36593;SDS011;22603;47.900;8.146;2022-12-18T01:09:35;7.83;;;2.57;;
36593;SDS011;22603;47.900;8.146;2022-12-18T01:12:23;3.77;;;2.23;;
36593;SDS011;22603;47.900;8.146;2022-12-18T01:19:02;7.40;;;1.57;;
36593;SDS011;22603;47.900;8.146;2022-12-18T01:21:50;3.17;;;2.03;;
36593;SDS011;22603;47.900;8.146;2022-12-18T01:24:37;2.50;;;1.53;;
36593;SDS011;22603;47.900;8.146;2022-12-18T01:27:24;1.73;;;1.30;;
36593;SDS011;22603;47.900;8.146;2022-12-18T01:30:11;2.30;;;1.40;;
36593;SDS011;22603;47.900;8.146;2022-12-18T01:32:58;4.63;;;1.63;;
36593;SDS011;22603;47.900;8.146;2022-12-18T01:35:46;6.73;;;3.43;;
36593;SDS011;22603;47.900;8.146;2022-12-18T01:38:34;4.47;;;2.13;;
36593;SDS011;22603;47.900;8.146;2022-12-18T01:41:22;4.83;;;2.93;;
36593;SDS011;22603;47.900;8.146;2022-12-18T01:47:41;4.87;;;1.50;;
36593;SDS011;22603;47.900;8.146;2022-12-18T01:50:31;5.80;;;3.63;;
36593;SDS011;22603;47.900;8.146;2022-12-18T01:53:23;10.27;;;4.40;;
36593;SDS011;22603;47.900;8.146;2022-12-18T01:56:12;4.37;;;2.90;;
36593;SDS011;22603;47.900;8.146;2022-12-18T01:59:02;10.20;;;2.17;;
36593;SDS011;22603;47.900;8.146;2022-12-18T02:01:50;4.70;;;1.90;;
36593;SDS011;22603;47.900;8.146;2022-12-18T02:04:37;16.10;;;2.07;;
36593;SDS011;22603;47.900;8.146;2022-12-18T02:07:37;2.73;;;1.77;;
36593;SDS011;22603;47.900;8.146;2022-12-18T02:10:33;4.53;;;1.93;;
36593;SDS011;22603;47.900;8.146;2022-12-18T02:13:28;3.67;;;2.67;;
36593;SDS011;22603;47.900;8.146;2022-12-18T02:16:21;5.20;;;1.33;;
36593;SDS011;22603;47.900;8.146;2022-12-18T02:19:15;10.97;;;2.87;;
36593;SDS011;22603;47.900;8.146;2022-12-18T02:22:27;6.17;;;3.60;;
36593;SDS011;22603;47.900;8.146;2022-12-18T02:25:26;6.67;;;3.93;;
36593;SDS011;22603;47.900;8.146;2022-12-18T02:28:28;10.40;;;4.07;;
36593;SDS011;22603;47.900;8.146;2022-12-18T02:31:27;8.90;;;2.57;;
36593;SDS011;22603;47.900;8.146;2022-12-18T02:34:17;4.30;;;1.70;;
36593;SDS011;22603;47.900;8.146;2022-12-18T02:37:09;4.63;;;1.40;;
36593;SDS011;22603;47.900;8.146;2022-12-18T02:39:58;7.50;;;2.63;;
36593;SDS011;22603;47.900;8.146;2022-12-18T02:42:46;7.53;;;3.40;;
36593;SDS011;22603;47.900;8.146;2022-12-18T02:45:35;9.03;;;2.53;;
36593;SDS011;22603;47.900;8.146;2022-12-18T02:48:32;11.67;;;3.37;;
36593;SDS011;22603;47.900;8.146;2022-12-18T02:51:23;8.50;;;3.17;;
36593;SDS011;22603;47.900;8.146;2022-12-18T02:54:18;7.57;;;4.00;;
36593;SDS011;22603;47.900;8.146;2022-12-18T02:57:14;8.03;;;3.73;;
36593;SDS011;22603;47.900;8.146;2022-12-18T03:00:08;4.80;;;1.60;;
36593;SDS011;22603;47.900;8.146;2022-12-18T03:03:02;9.30;;;4.43;;
36593;SDS011;22603;47.900;8.146;2022-12-18T03:05:55;5.33;;;2.73;;
36593;SDS011;22603;47.900;8.146;2022-12-18T03:08:46;7.03;;;2.97;;
36593;SDS011;22603;47.900;8.146;2022-12-18T03:11:37;3.63;;;2.37;;
36593;SDS011;22603;47.900;8.146;2022-12-18T03:14:46;13.50;;;4.03;;
36593;SDS011;22603;47.900;8.146;2022-12-18T03:17:37;4.50;;;2.37;;
36593;SDS011;22603;47.900;8.146;2022-12-18T03:20:29;6.40;;;3.03;;
36593;SDS011;22603;47.900;8.146;2022-12-18T03:23:20;5.97;;;2.27;;
36593;SDS011;22603;47.900;8.146;2022-12-18T03:26:11;7.83;;;2.93;;
36593;SDS011;22603;47.900;8.146;2022-12-18T03:29:02;9.13;;;3.07;;
36593;SDS011;22603;47.900;8.146;2022-12-18T03:31:53;5.50;;;3.53;;
36593;SDS011;22603;47.900;8.146;2022-12-18T03:34:45;4.47;;;3.30;;
36593;SDS011;22603;47.900;8.146;2022-12-18T03:37:38;4.70;;;1.50;;
36593;SDS011;22603;47.900;8.146;2022-12-18T03:40:26;4.10;;;2.53;;
36593;SDS011;22603;47.900;8.146;2022-12-18T03:43:25;5.40;;;2.83;;
36593;SDS011;22603;47.900;8.146;2022-12-18T03:46:24;10.67;;;3.63;;
36593;SDS011;22603;47.900;8.146;2022-12-18T03:49:17;4.40;;;2.20;;
36593;SDS011;22603;47.900;8.146;2022-12-18T03:52:11;8.40;;;3.80;;
36593;SDS011;22603;47.900;8.146;2022-12-18T03:55:05;7.90;;;3.67;;
36593;SDS011;22603;47.900;8.146;2022-12-18T03:57:54;14.63;;;3.27;;
36593;SDS011;22603;47.900;8.146;2022-12-18T04:00:42;11.50;;;3.63;;
36593;SDS011;22603;47.900;8.146;2022-12-18T04:03:30;7.00;;;2.87;;
36593;SDS011;22603;47.900;8.146;2022-12-18T04:06:21;9.80;;;3.43;;
36593;SDS011;22603;47.900;8.146;2022-12-18T04:09:09;6.47;;;3.47;;
36593;SDS011;22603;47.900;8.146;2022-12-18T04:11:57;10.77;;;3.17;;
36593;SDS011;22603;47.900;8.146;2022-12-18T04:14:45;3.80;;;2.47;;
36593;SDS011;22603;47.900;8.146;2022-12-18T04:17:32;7.40;;;3.23;;
36593;SDS011;22603;47.900;8.146;2022-12-18T04:20:19;10.43;;;3.47;;
36593;SDS011;22603;47.900;8.146;2022-12-18T04:23:06;8.43;;;4.03;;
36593;SDS011;22603;47.900;8.146;2022-12-18T04:25:54;10.17;;;4.47;;
36593;SDS011;22603;47.900;8.146;2022-12-18T04:28:42;13.47;;;3.40;;
36593;SDS011;22603;47.900;8.146;2022-12-18T04:31:29;6.13;;;3.80;;
36593;SDS011;22603;47.900;8.146;2022-12-18T04:34:17;6.43;;;2.73;;
36593;SDS011;22603;47.900;8.146;2022-12-18T04:37:03;7.67;;;4.90;;
36593;SDS011;22603;47.900;8.146;2022-12-18T04:39:51;10.97;;;4.07;;
36593;SDS011;22603;47.900;8.146;2022-12-18T04:42:38;10.53;;;3.73;;
36593;SDS011;22603;47.900;8.146;2022-12-18T04:45:27;8.57;;;3.53;;
36593;SDS011;22603;47.900;8.146;2022-12-18T04:48:14;10.60;;;4.67;;
36593;SDS011;22603;47.900;8.146;2022-12-18T04:51:01;7.20;;;2.83;;
36593;SDS011;22603;47.900;8.146;2022-12-18T04:53:48;9.53;;;3.77;;
36593;SDS011;22603;47.900;8.146;2022-12-18T04:56:35;6.73;;;2.67;;
36593;SDS011;22603;47.900;8.146;2022-12-18T04:59:22;7.67;;;3.33;;
36593;SDS011;22603;47.900;8.146;2022-12-18T05:02:10;5.40;;;2.23;;
36593;SDS011;22603;47.900;8.146;2022-12-18T05:04:58;7.77;;;2.93;;
36593;SDS011;22603;47.900;8.146;2022-12-18T05:07:45;15.67;;;4.80;;
36593;SDS011;22603;47.900;8.146;2022-12-18T05:10:32;13.93;;;5.30;;
36593;SDS011;22603;47.900;8.146;2022-12-18T05:13:22;31.03;;;5.03;;
36593;SDS011;22603;47.900;8.146;2022-12-18T05:16:12;13.83;;;5.13;;
36593;SDS011;22603;47.900;8.146;2022-12-18T05:19:02;7.57;;;3.47;;
36593;SDS011;22603;47.900;8.146;2022-12-18T05:21:51;17.40;;;7.13;;
36593;SDS011;22603;47.900;8.146;2022-12-18T05:24:38;9.23;;;4.70;;
36593;SDS011;22603;47.900;8.146;2022-12-18T05:27:25;7.50;;;2.73;;
36593;SDS011;22603;47.900;8.146;2022-12-18T05:30:12;7.83;;;3.93;;
36593;SDS011;22603;47.900;8.146;2022-12-18T05:33:00;10.20;;;4.93;;
36593;SDS011;22603;47.900;8.146;2022-12-18T05:35:51;10.33;;;3.10;;
36593;SDS011;22603;47.900;8.146;2022-12-18T05:38:40;20.43;;;5.53;;
36593;SDS011;22603;47.900;8.146;2022-12-18T05:41:27;10.33;;;4.77;;
36593;SDS011;22603;47.900;8.146;2022-12-18T05:44:14;10.07;;;4.00;;
36593;SDS011;22603;47.900;8.146;2022-12-18T05:47:05;12.23;;;5.17;;
36593;SDS011;22603;47.900;8.146;2022-12-18T05:50:02;14.93;;;3.90;;
36593;SDS011;22603;47.900;8.146;2022-12-18T05:52:51;11.57;;;4.53;;
36593;SDS011;22603;47.900;8.146;2022-12-18T05:55:39;12.07;;;4.30;;
36593;SDS011;22603;47.900;8.146;2022-12-18T05:58:26;9.30;;;4.30;;
36593;SDS011;22603;47.900;8.146;2022-12-18T06:01:13;9.93;;;4.17;;
36593;SDS011;22603;47.900;8.146;2022-12-18T06:04:08;9.47;;;3.27;;
36593;SDS011;22603;47.900;8.146;2022-12-18T06:06:55;9.07;;;3.60;;
36593;SDS011;22603;47.900;8.146;2022-12-18T06:09:44;6.50;;;4.07;;
36593;SDS011;22603;47.900;8.146;2022-12-18T06:12:31;11.73;;;3.80;;
36593;SDS011;22603;47.900;8.146;2022-12-18T06:15:19;12.17;;;3.90;;
36593;SDS011;22603;47.900;8.146;2022-12-18T06:18:06;17.47;;;3.80;;
36593;SDS011;22603;47.900;8.146;2022-12-18T06:20:56;9.73;;;2.83;;
36593;SDS011;22603;47.900;8.146;2022-12-18T06:23:44;10.77;;;3.67;;
36593;SDS011;22603;47.900;8.146;2022-12-18T06:26:33;10.50;;;3.87;;
36593;SDS011;22603;47.900;8.146;2022-12-18T06:29:23;6.53;;;3.40;;
36593;SDS011;22603;47.900;8.146;2022-12-18T06:32:10;9.40;;;3.80;;
36593;SDS011;22603;47.900;8.146;2022-12-18T06:34:57;6.17;;;3.37;;
36593;SDS011;22603;47.900;8.146;2022-12-18T06:37:44;9.60;;;4.77;;
36593;SDS011;22603;47.900;8.146;2022-12-18T06:40:31;10.30;;;4.00;;
36593;SDS011;22603;47.900;8.146;2022-12-18T06:43:20;8.70;;;2.40;;
36593;SDS011;22603;47.900;8.146;2022-12-18T06:46:07;7.30;;;3.60;;
36593;SDS011;22603;47.900;8.146;2022-12-18T06:48:55;11.00;;;3.67;;
36593;SDS011;22603;47.900;8.146;2022-12-18T06:51:42;9.90;;;3.77;;
36593;SDS011;22603;47.900;8.146;2022-12-18T06:54:29;7.60;;;2.73;;
36593;SDS011;22603;47.900;8.146;2022-12-18T06:57:16;7.63;;;3.30;;
36593;SDS011;22603;47.900;8.146;2022-12-18T07:00:06;17.47;;;3.93;;
36593;SDS011;22603;47.900;8.146;2022-12-18T07:02:54;6.30;;;2.63;;
36593;SDS011;22603;47.900;8.146;2022-12-18T07:05:41;8.93;;;2.87;;
36593;SDS011;22603;47.900;8.146;2022-12-18T07:08:29;8.83;;;3.07;;
36593;SDS011;22603;47.900;8.146;2022-12-18T07:11:16;4.97;;;2.37;;
36593;SDS011;22603;47.900;8.146;2022-12-18T07:14:04;6.33;;;2.70;;
36593;SDS011;22603;47.900;8.146;2022-12-18T07:16:53;5.13;;;2.90;;
36593;SDS011;22603;47.900;8.146;2022-12-18T07:19:40;6.57;;;2.93;;
36593;SDS011;22603;47.900;8.146;2022-12-18T07:22:27;19.47;;;4.87;;
36593;SDS011;22603;47.900;8.146;2022-12-18T07:25:15;7.80;;;2.80;;
36593;SDS011;22603;47.900;8.146;2022-12-18T07:28:02;6.60;;;3.60;;
36593;SDS011;22603;47.900;8.146;2022-12-18T07:30:51;9.07;;;3.00;;
36593;SDS011;22603;47.900;8.146;2022-12-18T07:33:41;12.23;;;4.87;;
36593;SDS011;22603;47.900;8.146;2022-12-18T07:36:28;11.77;;;2.83;;
36593;SDS011;22603;47.900;8.146;2022-12-18T07:39:15;19.33;;;5.53;;
36593;SDS011;22603;47.900;8.146;2022-12-18T07:42:02;10.50;;;4.03;;
36593;SDS011;22603;47.900;8.146;2022-12-18T07:45:09;7.07;;;3.33;;
36593;SDS011;22603;47.900;8.146;2022-12-18T07:47:56;8.57;;;3.03;;
36593;SDS011;22603;47.900;8.146;2022-12-18T07:50:45;10.10;;;3.53;;
36593;SDS011;22603;47.900;8.146;2022-12-18T07:53:32;12.10;;;4.13;;
36593;SDS011;22603;47.900;8.146;2022-12-18T07:56:21;9.50;;;3.70;;
36593;SDS011;22603;47.900;8.146;2022-12-18T07:59:12;13.77;;;4.37;;
36593;SDS011;22603;47.900;8.146;2022-12-18T08:02:01;9.90;;;3.47;;
36593;SDS011;22603;47.900;8.146;2022-12-18T08:04:51;15.07;;;4.90;;
36593;SDS011;22603;47.900;8.146;2022-12-18T08:07:39;11.47;;;5.50;;
36593;SDS011;22603;47.900;8.146;2022-12-18T08:10:26;11.57;;;4.27;;
36593;SDS011;22603;47.900;8.146;2022-12-18T08:13:12;11.50;;;4.63;;
36593;SDS011;22603;47.900;8.146;2022-12-18T08:16:00;16.20;;;5.83;;
36593;SDS011;22603;47.900;8.146;2022-12-18T08:18:51;13.40;;;6.37;;
36593;SDS011;22603;47.900;8.146;2022-12-18T08:21:38;18.80;;;5.53;;
36593;SDS011;22603;47.900;8.146;2022-12-18T08:24:29;11.83;;;4.20;;
36593;SDS011;22603;47.900;8.146;2022-12-18T08:27:16;16.23;;;5.17;;
36593;SDS011;22603;47.900;8.146;2022-12-18T08:30:13;15.40;;;6.87;;
36593;SDS011;22603;47.900;8.146;2022-12-18T08:33:01;19.27;;;5.47;;
36593;SDS011;22603;47.900;8.146;2022-12-18T08:35:48;16.83;;;5.03;;
36593;SDS011;22603;47.900;8.146;2022-12-18T08:38:35;16.33;;;6.20;;
36593;SDS011;22603;47.900;8.146;2022-12-18T08:41:24;14.83;;;6.03;;
36593;SDS011;22603;47.900;8.146;2022-12-18T08:44:11;19.23;;;7.13;;
36593;SDS011;22603;47.900;8.146;2022-12-18T08:47:15;17.37;;;6.77;;
36593;SDS011;22603;47.900;8.146;2022-12-18T08:50:02;16.37;;;5.77;;
36593;SDS011;22603;47.900;8.146;2022-12-18T08:52:51;16.67;;;6.97;;
36593;SDS011;22603;47.900;8.146;2022-12-18T08:55:37;13.47;;;6.47;;
36593;SDS011;22603;47.900;8.146;2022-12-18T08:58:31;23.20;;;6.57;;
36593;SDS011;22603;47.900;8.146;2022-12-18T09:01:18;21.20;;;7.53;;
36593;SDS011;22603;47.900;8.146;2022-12-18T09:04:07;16.63;;;7.13;;
36593;SDS011;22603;47.900;8.146;2022-12-18T09:06:55;28.30;;;9.07;;
36593;SDS011;22603;47.900;8.146;2022-12-18T09:09:41;23.10;;;8.80;;
36593;SDS011;22603;47.900;8.146;2022-12-18T09:12:29;27.63;;;8.63;;
36593;SDS011;22603;47.900;8.146;2022-12-18T09:15:18;24.23;;;8.43;;
36593;SDS011;22603;47.900;8.146;2022-12-18T09:18:05;22.20;;;8.47;;
36593;SDS011;22603;47.900;8.146;2022-12-18T09:20:52;27.83;;;9.00;;
36593;SDS011;22603;47.900;8.146;2022-12-18T09:23:39;25.57;;;9.30;;
36593;SDS011;22603;47.900;8.146;2022-12-18T09:26:27;28.77;;;10.40;;
36593;SDS011;22603;47.900;8.146;2022-12-18T09:29:14;31.23;;;11.70;;
36593;SDS011;22603;47.900;8.146;2022-12-18T09:32:05;25.87;;;9.90;;
36593;SDS011;22603;47.900;8.146;2022-12-18T09:34:51;27.03;;;9.53;;
36593;SDS011;22603;47.900;8.146;2022-12-18T09:37:39;28.33;;;9.10;;
36593;SDS011;22603;47.900;8.146;2022-12-18T09:40:28;23.37;;;9.80;;
36593;SDS011;22603;47.900;8.146;2022-12-18T09:43:24;22.70;;;9.30;;
36593;SDS011;22603;47.900;8.146;2022-12-18T09:46:15;27.00;;;9.47;;
36593;SDS011;22603;47.900;8.146;2022-12-18T09:49:07;24.67;;;9.27;;
36593;SDS011;22603;47.900;8.146;2022-12-18T09:52:00;22.90;;;9.53;;
36593;SDS011;22603;47.900;8.146;2022-12-18T09:54:52;28.47;;;9.97;;
36593;SDS011;22603;47.900;8.146;2022-12-18T09:57:45;25.43;;;9.50;;
36593;SDS011;22603;47.900;8.146;2022-12-18T10:00:35;26.73;;;8.50;;
36593;SDS011;22603;47.900;8.146;2022-12-18T10:03:23;25.63;;;9.90;;
36593;SDS011;22603;47.900;8.146;2022-12-18T10:06:13;29.67;;;9.27;;
36593;SDS011;22603;47.900;8.146;2022-12-18T10:09:05;24.07;;;9.27;;
36593;SDS011;22603;47.900;8.146;2022-12-18T10:12:02;24.17;;;9.93;;
36593;SDS011;22603;47.900;8.146;2022-12-18T10:14:57;22.13;;;9.07;;
36593;SDS011;22603;47.900;8.146;2022-12-18T10:17:49;29.60;;;10.43;;
36593;SDS011;22603;47.900;8.146;2022-12-18T10:20:45;24.90;;;8.30;;
36593;SDS011;22603;47.900;8.146;2022-12-18T10:23:37;25.07;;;9.07;;
36593;SDS011;22603;47.900;8.146;2022-12-18T10:26:32;28.13;;;9.90;;
36593;SDS011;22603;47.900;8.146;2022-12-18T10:29:20;26.37;;;9.70;;
36593;SDS011;22603;47.900;8.146;2022-12-18T10:32:08;25.40;;;10.20;;
36593;SDS011;22603;47.900;8.146;2022-12-18T10:35:01;24.63;;;9.33;;
36593;SDS011;22603;47.900;8.146;2022-12-18T10:38:02;24.63;;;9.27;;
36593;SDS011;22603;47.900;8.146;2022-12-18T10:40:54;22.80;;;9.23;;
36593;SDS011;22603;47.900;8.146;2022-12-18T10:43:43;25.10;;;8.97;;
36593;SDS011;22603;47.900;8.146;2022-12-18T10:46:30;23.93;;;9.23;;
36593;SDS011;22603;47.900;8.146;2022-12-18T10:49:18;24.03;;;9.60;;
36593;SDS011;22603;47.900;8.146;2022-12-18T10:52:12;22.97;;;9.10;;
36593;SDS011;22603;47.900;8.146;2022-12-18T10:55:03;26.47;;;10.30;;
36593;SDS011;22603;47.900;8.146;2022-12-18T10:57:52;24.27;;;9.60;;
36593;SDS011;22603;47.900;8.146;2022-12-18T11:00:43;24.53;;;9.13;;
36593;SDS011;22603;47.900;8.146;2022-12-18T11:03:31;24.87;;;9.63;;
36593;SDS011;22603;47.900;8.146;2022-12-18T11:06:21;23.23;;;8.87;;
36593;SDS011;22603;47.900;8.146;2022-12-18T11:09:19;23.00;;;9.27;;
36593;SDS011;22603;47.900;8.146;2022-12-18T11:12:14;21.43;;;8.57;;
36593;SDS011;22603;47.900;8.146;2022-12-18T11:15:05;25.13;;;9.53;;
36593;SDS011;22603;47.900;8.146;2022-12-18T11:18:01;28.53;;;9.83;;
36593;SDS011;22603;47.900;8.146;2022-12-18T11:20:50;22.83;;;8.90;;
36593;SDS011;22603;47.900;8.146;2022-12-18T11:23:45;17.10;;;8.07;;
36593;SDS011;22603;47.900;8.146;2022-12-18T11:26:34;24.03;;;8.37;;
36593;SDS011;22603;47.900;8.146;2022-12-18T11:29:23;22.50;;;8.17;;
36593;SDS011;22603;47.900;8.146;2022-12-18T11:32:23;25.80;;;8.97;;
36593;SDS011;22603;47.900;8.146;2022-12-18T11:35:19;23.03;;;9.10;;
36593;SDS011;22603;47.900;8.146;2022-12-18T11:38:12;25.07;;;9.00;;
36593;SDS011;22603;47.900;8.146;2022-12-18T11:41:11;20.63;;;8.07;;
36593;SDS011;22603;47.900;8.146;2022-12-18T11:44:31;24.67;;;8.33;;
36593;SDS011;22603;47.900;8.146;2022-12-18T11:47:26;27.00;;;9.67;;
36593;SDS011;22603;47.900;8.146;2022-12-18T11:50:17;23.13;;;8.40;;
36593;SDS011;22603;47.900;8.146;2022-12-18T11:53:09;22.33;;;8.03;;
36593;SDS011;22603;47.900;8.146;2022-12-18T11:56:04;26.37;;;9.97;;
36593;SDS011;22603;47.900;8.146;2022-12-18T11:59:08;25.13;;;7.97;;
36593;SDS011;22603;47.900;8.146;2022-12-18T12:02:03;22.70;;;8.83;;
36593;SDS011;22603;47.900;8.146;2022-12-18T12:05:20;28.77;;;10.00;;
36593;SDS011;22603;47.900;8.146;2022-12-18T12:08:27;24.30;;;8.63;;
36593;SDS011;22603;47.900;8.146;2022-12-18T12:11:24;20.57;;;8.40;;
36593;SDS011;22603;47.900;8.146;2022-12-18T12:14:24;31.37;;;9.73;;
36593;SDS011;22603;47.900;8.146;2022-12-18T12:17:22;25.57;;;8.90;;
36593;SDS011;22603;47.900;8.146;2022-12-18T12:20:18;25.30;;;9.10;;
36593;SDS011;22603;47.900;8.146;2022-12-18T12:23:13;32.23;;;8.60;;
36593;SDS011;22603;47.900;8.146;2022-12-18T12:26:12;21.70;;;9.17;;
36593;SDS011;22603;47.900;8.146;2022-12-18T12:29:10;24.37;;;9.30;;
36593;SDS011;22603;47.900;8.146;2022-12-18T12:32:13;22.23;;;9.60;;
36593;SDS011;22603;47.900;8.146;2022-12-18T12:35:12;23.67;;;8.07;;
36593;SDS011;22603;47.900;8.146;2022-12-18T12:38:09;25.50;;;7.10;;
36593;SDS011;22603;47.900;8.146;2022-12-18T12:41:01;22.63;;;8.87;;
36593;SDS011;22603;47.900;8.146;2022-12-18T12:43:51;27.03;;;8.17;;
36593;SDS011;22603;47.900;8.146;2022-12-18T12:46:40;23.83;;;8.27;;
36593;SDS011;22603;47.900;8.146;2022-12-18T12:49:29;20.30;;;7.67;;
36593;SDS011;22603;47.900;8.146;2022-12-18T12:52:28;24.60;;;7.73;;
36593;SDS011;22603;47.900;8.146;2022-12-18T12:55:22;19.43;;;8.33;;
36593;SDS011;22603;47.900;8.146;2022-12-18T12:58:12;21.67;;;7.70;;
36593;SDS011;22603;47.900;8.146;2022-12-18T13:01:08;21.40;;;7.73;;
36593;SDS011;22603;47.900;8.146;2022-12-18T13:04:11;26.53;;;7.97;;
36593;SDS011;22603;47.900;8.146;2022-12-18T13:07:10;21.43;;;8.40;;
36593;SDS011;22603;47.900;8.146;2022-12-18T13:13:18;19.23;;;7.10;;
36593;SDS011;22603;47.900;8.146;2022-12-18T13:16:08;23.60;;;9.07;;
36593;SDS011;22603;47.900;8.146;2022-12-18T13:18:56;22.87;;;8.37;;
36593;SDS011;22603;47.900;8.146;2022-12-18T13:21:45;20.70;;;8.10;;
36593;SDS011;22603;47.900;8.146;2022-12-18T13:24:40;21.33;;;8.20;;
36593;SDS011;22603;47.900;8.146;2022-12-18T13:27:51;19.87;;;7.47;;
36593;SDS011;22603;47.900;8.146;2022-12-18T13:30:45;23.03;;;8.60;;
36593;SDS011;22603;47.900;8.146;2022-12-18T13:33:38;20.17;;;7.53;;
36593;SDS011;22603;47.900;8.146;2022-12-18T13:36:50;21.73;;;8.40;;
36593;SDS011;22603;47.900;8.146;2022-12-18T13:39:38;23.57;;;7.63;;
36593;SDS011;22603;47.900;8.146;2022-12-18T13:42:35;21.67;;;7.87;;
36593;SDS011;22603;47.900;8.146;2022-12-18T13:45:47;23.80;;;9.73;;
36593;SDS011;22603;47.900;8.146;2022-12-18T13:48:37;20.93;;;7.90;;
36593;SDS011;22603;47.900;8.146;2022-12-18T13:51:25;22.23;;;7.37;;
36593;SDS011;22603;47.900;8.146;2022-12-18T13:54:17;29.13;;;9.23;;
36593;SDS011;22603;47.900;8.146;2022-12-18T13:57:23;24.60;;;8.90;;
36593;SDS011;22603;47.900;8.146;2022-12-18T14:00:23;23.03;;;8.80;;
36593;SDS011;22603;47.900;8.146;2022-12-18T14:03:21;19.70;;;7.10;;
36593;SDS011;22603;47.900;8.146;2022-12-18T14:06:11;21.97;;;8.37;;
36593;SDS011;22603;47.900;8.146;2022-12-18T14:09:00;21.10;;;7.30;;
36593;SDS011;22603;47.900;8.146;2022-12-18T14:11:53;18.93;;;7.43;;
36593;SDS011;22603;47.900;8.146;2022-12-18T14:15:02;19.63;;;7.77;;
36593;SDS011;22603;47.900;8.146;2022-12-18T14:17:52;17.30;;;6.87;;
36593;SDS011;22603;47.900;8.146;2022-12-18T14:20:44;16.90;;;7.07;;
36593;SDS011;22603;47.900;8.146;2022-12-18T14:23:37;20.80;;;7.17;;
36593;SDS011;22603;47.900;8.146;2022-12-18T14:26:28;22.00;;;7.80;;
36593;SDS011;22603;47.900;8.146;2022-12-18T14:29:18;23.30;;;8.10;;
36593;SDS011;22603;47.900;8.146;2022-12-18T14:32:10;21.13;;;7.00;;
36593;SDS011;22603;47.900;8.146;2022-12-18T14:35:12;20.37;;;7.77;;
36593;SDS011;22603;47.900;8.146;2022-12-18T14:38:11;20.90;;;6.87;;
36593;SDS011;22603;47.900;8.146;2022-12-18T14:41:09;23.07;;;8.00;;
36593;SDS011;22603;47.900;8.146;2022-12-18T14:44:04;21.20;;;7.43;;
36593;SDS011;22603;47.900;8.146;2022-12-18T14:46:52;21.97;;;8.83;;
36593;SDS011;22603;47.900;8.146;2022-12-18T14:49:40;21.33;;;8.03;;
36593;SDS011;22603;47.900;8.146;2022-12-18T14:52:29;24.07;;;8.87;;
36593;SDS011;22603;47.900;8.146;2022-12-18T14:55:20;19.23;;;6.63;;
36593;SDS011;22603;47.900;8.146;2022-12-18T14:58:10;23.17;;;8.67;;
36593;SDS011;22603;47.900;8.146;2022-12-18T15:01:02;21.60;;;7.90;;
36593;SDS011;22603;47.900;8.146;2022-12-18T15:03:49;23.87;;;9.77;;
36593;SDS011;22603;47.900;8.146;2022-12-18T15:06:38;25.17;;;9.87;;
36593;SDS011;22603;47.900;8.146;2022-12-18T15:09:26;25.70;;;7.97;;
36593;SDS011;22603;47.900;8.146;2022-12-18T15:12:22;24.70;;;9.23;;
36593;SDS011;22603;47.900;8.146;2022-12-18T15:18:32;18.20;;;7.80;;
36593;SDS011;22603;47.900;8.146;2022-12-18T15:21:21;31.50;;;11.67;;
36593;SDS011;22603;47.900;8.146;2022-12-18T15:24:14;24.73;;;7.97;;
36593;SDS011;22603;47.900;8.146;2022-12-18T15:27:03;30.83;;;10.50;;
36593;SDS011;22603;47.900;8.146;2022-12-18T15:30:15;21.33;;;6.97;;
36593;SDS011;22603;47.900;8.146;2022-12-18T15:33:22;23.73;;;8.53;;
36593;SDS011;22603;47.900;8.146;2022-12-18T15:36:12;22.07;;;7.63;;
36593;SDS011;22603;47.900;8.146;2022-12-18T15:39:04;27.70;;;9.57;;
36593;SDS011;22603;47.900;8.146;2022-12-18T15:41:51;26.80;;;8.37;;
36593;SDS011;22603;47.900;8.146;2022-12-18T15:44:55;19.93;;;7.17;;
36593;SDS011;22603;47.900;8.146;2022-12-18T15:47:50;24.43;;;8.33;;
36593;SDS011;22603;47.900;8.146;2022-12-18T15:51:04;26.70;;;9.27;;
36593;SDS011;22603;47.900;8.146;2022-12-18T15:53:58;24.90;;;8.30;;
36593;SDS011;22603;47.900;8.146;2022-12-18T15:56:48;23.37;;;7.90;;
36593;SDS011;22603;47.900;8.146;2022-12-18T15:59:54;20.27;;;7.53;;
36593;SDS011;22603;47.900;8.146;2022-12-18T16:02:43;21.97;;;8.40;;
36593;SDS011;22603;47.900;8.146;2022-12-18T16:05:32;22.73;;;9.03;;
36593;SDS011;22603;47.900;8.146;2022-12-18T16:08:19;21.03;;;8.80;;
36593;SDS011;22603;47.900;8.146;2022-12-18T16:11:08;26.80;;;7.90;;
36593;SDS011;22603;47.900;8.146;2022-12-18T16:14:23;22.77;;;7.77;;
36593;SDS011;22603;47.900;8.146;2022-12-18T16:17:13;21.70;;;7.57;;
36593;SDS011;22603;47.900;8.146;2022-12-18T16:20:00;21.63;;;8.13;;
36593;SDS011;22603;47.900;8.146;2022-12-18T16:22:49;26.30;;;8.80;;
36593;SDS011;22603;47.900;8.146;2022-12-18T16:25:36;21.90;;;7.13;;
36593;SDS011;22603;47.900;8.146;2022-12-18T16:28:23;18.30;;;8.30;;
36593;SDS011;22603;47.900;8.146;2022-12-18T16:31:10;17.00;;;8.00;;
36593;SDS011;22603;47.900;8.146;2022-12-18T16:34:11;18.30;;;6.20;;
36593;SDS011;22603;47.900;8.146;2022-12-18T16:36:59;23.27;;;10.20;;
36593;SDS011;22603;47.900;8.146;2022-12-18T16:39:51;22.50;;;7.70;;
36593;SDS011;22603;47.900;8.146;2022-12-18T16:42:39;24.47;;;8.53;;
36593;SDS011;22603;47.900;8.146;2022-12-18T16:45:27;29.27;;;9.80;;
36593;SDS011;22603;47.900;8.146;2022-12-18T16:48:18;19.47;;;8.37;;
36593;SDS011;22603;47.900;8.146;2022-12-18T16:51:05;27.73;;;9.97;;
36593;SDS011;22603;47.900;8.146;2022-12-18T16:53:52;27.87;;;9.43;;
36593;SDS011;22603;47.900;8.146;2022-12-18T16:56:41;26.93;;;9.43;;
36593;SDS011;22603;47.900;8.146;2022-12-18T16:59:29;29.33;;;9.93;;
36593;SDS011;22603;47.900;8.146;2022-12-18T17:02:20;32.23;;;10.90;;
36593;SDS011;22603;47.900;8.146;2022-12-18T17:05:09;21.40;;;8.33;;
36593;SDS011;22603;47.900;8.146;2022-12-18T17:07:56;28.97;;;9.03;;
36593;SDS011;22603;47.900;8.146;2022-12-18T17:10:44;22.50;;;9.00;;
36593;SDS011;22603;47.900;8.146;2022-12-18T17:13:34;28.33;;;9.53;;
36593;SDS011;22603;47.900;8.146;2022-12-18T17:16:22;24.40;;;8.90;;